Time;durP1;ratioP1;P1;durP2;ratioP2;P2;SDS_P1;SDS_P2;PMS_P1;PMS_P2;Temp;Humidity;BMP_temperature;BMP_pressure;BME280_temperature;BME280_humidity;BME280_pressure;Samples;Min_cycle;Max_cycle;Signal;HPM_P1;HPM_P2
2022/01/31 00:00:04;;;;;;;14.83;6.93;;;2.20;99.90;;;;;;4947251;28;20468;-64
2022/01/31 00:02:29;;;;;;;14.90;6.30;;;2.20;99.90;;;;;;4943230;29;20542;-64
2022/01/31 00:04:54;;;;;;;9.47;6.20;;;2.10;99.90;;;;;;4935794;29;20433;-64
2022/01/31 00:07:20;;;;;;;8.80;5.33;;;2.00;99.90;;;;;;4942699;29;20240;-64
2022/01/31 00:09:46;;;;;;;7.90;5.17;;;2.00;99.90;;;;;;4950330;28;20204;-64
2022/01/31 00:12:15;;;;;;;10.17;5.23;;;2.10;99.90;;;;;;4940024;29;20180;-64
2022/01/31 00:14:46;;;;;;;15.83;5.97;;;2.10;99.90;;;;;;4948538;29;20266;-63
2022/01/31 00:17:13;;;;;;;7.40;4.70;;;2.10;99.90;;;;;;4952462;29;20436;-63
2022/01/31 00:19:40;;;;;;;8.20;5.40;;;2.10;99.90;;;;;;4947861;28;20809;-64
2022/01/31 00:22:08;;;;;;;9.40;5.20;;;2.10;99.90;;;;;;4940522;29;20488;-64
2022/01/31 00:24:34;;;;;;;8.23;4.60;;;2.20;99.90;;;;;;4939405;29;20960;-63
2022/01/31 00:27:01;;;;;;;16.33;5.30;;;2.20;99.90;;;;;;4941585;29;20441;-63
2022/01/31 00:29:27;;;;;;;7.50;5.90;;;2.20;99.90;;;;;;4935890;29;20472;-66
2022/01/31 00:31:52;;;;;;;12.53;5.30;;;2.30;99.90;;;;;;4935311;29;20433;-64
2022/01/31 00:34:18;;;;;;;6.83;5.30;;;2.30;99.90;;;;;;4945469;29;20197;-64
2022/01/31 00:36:44;;;;;;;13.87;6.17;;;2.30;99.90;;;;;;4943745;29;20173;-64
2022/01/31 00:39:09;;;;;;;14.83;5.90;;;2.40;99.90;;;;;;4951938;28;20564;-64
2022/01/31 00:41:35;;;;;;;13.87;6.53;;;2.40;99.90;;;;;;4934762;29;20441;-63
2022/01/31 00:44:13;;;;;;;11.10;5.43;;;2.40;99.90;;;;;;4940754;28;20205;-63
2022/01/31 00:46:42;;;;;;;13.60;5.50;;;2.30;99.90;;;;;;4936766;29;20188;-64
2022/01/31 00:49:15;;;;;;;8.53;4.67;;;2.40;99.90;;;;;;4943431;29;20475;-63
2022/01/31 00:51:41;;;;;;;23.20;6.63;;;2.40;99.90;;;;;;4947201;29;20447;-63
2022/01/31 00:54:07;;;;;;;9.60;5.30;;;2.50;99.90;;;;;;4943463;28;20452;-63
2022/01/31 00:56:32;;;;;;;8.23;5.03;;;2.60;99.90;;;;;;4952599;28;20177;-63
2022/01/31 00:58:58;;;;;;;11.97;6.27;;;2.60;99.90;;;;;;4943674;28;20177;-64
2022/01/31 01:01:23;;;;;;;8.23;5.77;;;2.60;99.90;;;;;;4943656;29;20645;-64
2022/01/31 01:03:49;;;;;;;15.60;6.13;;;2.50;99.90;;;;;;4946346;29;20221;-64
2022/01/31 01:06:14;;;;;;;10.87;6.07;;;2.40;99.90;;;;;;4937888;29;20177;-63
2022/01/31 01:08:40;;;;;;;10.57;6.60;;;2.40;99.90;;;;;;4951637;29;20240;-64
2022/01/31 01:11:06;;;;;;;12.30;7.60;;;2.40;99.90;;;;;;4948057;28;20181;-63
2022/01/31 01:13:31;;;;;;;10.00;5.90;;;2.50;99.90;;;;;;4936693;29;20604;-62
2022/01/31 01:15:57;;;;;;;19.10;7.10;;;2.50;99.90;;;;;;4937910;29;20178;-64
2022/01/31 01:18:23;;;;;;;13.73;6.53;;;2.50;99.90;;;;;;4943112;29;20610;-64
2022/01/31 01:20:48;;;;;;;12.07;5.73;;;2.60;99.90;;;;;;4945738;28;20557;-65
2022/01/31 01:23:14;;;;;;;10.70;6.10;;;2.60;99.90;;;;;;4934038;29;20216;-64
2022/01/31 01:25:39;;;;;;;14.07;5.33;;;2.60;99.90;;;;;;4953148;29;20192;-65
2022/01/31 01:28:05;;;;;;;15.00;5.97;;;2.60;99.90;;;;;;4944951;28;20177;-63
2022/01/31 01:30:30;;;;;;;14.20;5.73;;;2.70;99.90;;;;;;4941232;29;20205;-64
2022/01/31 01:35:21;;;;;;;9.07;5.50;;;2.80;99.90;;;;;;4950750;29;20239;-65
2022/01/31 01:37:47;;;;;;;11.87;5.60;;;2.80;99.90;;;;;;4952198;28;20244;-64
2022/01/31 01:40:13;;;;;;;8.77;5.77;;;2.70;99.90;;;;;;4939787;29;20233;-65
2022/01/31 01:42:41;;;;;;;9.03;5.67;;;2.80;99.90;;;;;;4947270;29;20461;-64
2022/01/31 01:45:08;;;;;;;11.10;5.30;;;2.90;99.90;;;;;;4954418;29;20236;-64
2022/01/31 01:47:33;;;;;;;15.00;6.63;;;2.90;99.90;;;;;;4944374;28;20440;-65
2022/01/31 01:49:59;;;;;;;10.73;5.10;;;3.00;99.90;;;;;;4942272;28;20523;-64
2022/01/31 01:52:25;;;;;;;9.37;5.17;;;3.00;99.90;;;;;;4947651;29;20204;-64
2022/01/31 01:54:51;;;;;;;14.03;7.40;;;2.90;99.90;;;;;;4939225;29;20185;-65
2022/01/31 01:57:18;;;;;;;14.80;6.07;;;2.90;99.90;;;;;;4953575;29;20439;-64
2022/01/31 01:59:44;;;;;;;7.90;5.87;;;2.80;99.90;;;;;;4946262;29;20309;-64
2022/01/31 02:02:10;;;;;;;13.90;5.43;;;2.80;99.90;;;;;;4948206;29;20986;-64
2022/01/31 02:04:36;;;;;;;15.00;6.23;;;2.80;99.90;;;;;;4950331;29;20441;-65
2022/01/31 02:07:02;;;;;;;10.47;5.60;;;2.70;99.90;;;;;;4946499;29;20561;-65
2022/01/31 02:09:30;;;;;;;11.00;5.17;;;2.70;99.90;;;;;;4943813;28;20217;-64
2022/01/31 02:11:57;;;;;;;11.30;4.70;;;2.70;99.90;;;;;;4939150;29;20516;-65
2022/01/31 02:14:25;;;;;;;6.30;4.90;;;2.70;99.90;;;;;;4946981;28;20464;-65
2022/01/31 02:16:52;;;;;;;10.67;5.63;;;2.60;99.90;;;;;;4941093;29;20446;-64
2022/01/31 02:19:18;;;;;;;6.40;4.17;;;2.60;99.90;;;;;;4953595;29;20467;-64
2022/01/31 02:21:45;;;;;;;14.63;5.47;;;2.50;99.90;;;;;;4951598;29;20813;-64
2022/01/31 02:24:13;;;;;;;11.63;5.67;;;2.60;99.90;;;;;;4944430;29;20464;-64
2022/01/31 02:26:38;;;;;;;10.07;6.13;;;2.60;99.90;;;;;;4937152;29;20542;-65
2022/01/31 02:29:05;;;;;;;8.87;4.67;;;2.60;99.90;;;;;;4949495;28;20975;-64
2022/01/31 02:31:31;;;;;;;14.73;6.03;;;2.60;99.90;;;;;;4939380;29;20182;-64
2022/01/31 02:33:56;;;;;;;11.33;5.83;;;2.50;99.90;;;;;;4949206;29;20461;-64
2022/01/31 02:36:22;;;;;;;9.60;5.23;;;2.50;99.90;;;;;;4953191;28;20177;-64
2022/01/31 02:38:47;;;;;;;8.87;5.40;;;2.50;99.90;;;;;;4944095;28;20245;-64
2022/01/31 02:41:13;;;;;;;8.70;5.70;;;2.60;99.90;;;;;;4939203;29;20174;-64
2022/01/31 02:43:38;;;;;;;10.10;5.00;;;2.60;99.90;;;;;;4936233;29;20552;-64
2022/01/31 02:46:04;;;;;;;13.60;7.80;;;2.60;99.90;;;;;;4949551;28;20184;-64
2022/01/31 02:48:33;;;;;;;9.03;5.87;;;2.70;99.90;;;;;;4951121;28;20181;-64
2022/01/31 02:50:59;;;;;;;10.40;5.30;;;2.70;99.90;;;;;;4949120;28;20205;-64
2022/01/31 02:53:27;;;;;;;12.03;5.47;;;2.60;99.90;;;;;;4936880;29;20540;-63
2022/01/31 02:55:55;;;;;;;8.33;5.50;;;2.50;99.90;;;;;;4941192;29;20241;-63
2022/01/31 02:58:21;;;;;;;16.13;7.10;;;2.50;99.90;;;;;;4943108;29;20956;-64
2022/01/31 03:00:48;;;;;;;7.67;5.20;;;2.50;99.90;;;;;;4943484;29;20452;-63
2022/01/31 03:03:13;;;;;;;7.80;4.77;;;2.50;99.90;;;;;;4951120;29;20479;-64
2022/01/31 03:05:39;;;;;;;13.90;5.53;;;2.50;99.90;;;;;;4943707;28;20436;-63
2022/01/31 03:08:05;;;;;;;14.63;5.87;;;2.40;99.90;;;;;;4936173;29;20190;-64
2022/01/31 03:10:31;;;;;;;10.17;6.30;;;2.40;99.90;;;;;;4943704;29;20667;-64
2022/01/31 03:12:56;;;;;;;9.80;5.43;;;2.40;99.90;;;;;;4935357;29;20540;-64
2022/01/31 03:15:22;;;;;;;8.73;5.33;;;2.40;99.90;;;;;;4938305;29;20178;-64
2022/01/31 03:17:49;;;;;;;6.57;5.93;;;2.40;99.90;;;;;;4948697;29;20173;-64
2022/01/31 03:20:21;;;;;;;7.87;4.83;;;2.40;99.90;;;;;;4951712;28;20216;-64
2022/01/31 03:22:47;;;;;;;9.20;4.97;;;2.40;99.90;;;;;;4938605;29;20893;-65
2022/01/31 03:25:13;;;;;;;14.27;5.27;;;2.50;99.90;;;;;;4953668;28;20528;-65
2022/01/31 03:27:40;;;;;;;19.57;5.93;;;2.50;99.90;;;;;;4949436;28;20972;-64
2022/01/31 03:30:09;;;;;;;12.33;5.47;;;2.50;99.90;;;;;;4944792;29;20500;-65
2022/01/31 03:32:35;;;;;;;10.50;4.97;;;2.50;99.90;;;;;;4948991;29;20463;-64
2022/01/31 03:35:01;;;;;;;11.50;5.87;;;2.40;99.90;;;;;;4937046;29;20440;-63
2022/01/31 03:37:28;;;;;;;11.13;6.03;;;2.40;99.90;;;;;;4945207;29;20178;-65
2022/01/31 03:39:53;;;;;;;9.00;5.27;;;2.30;99.90;;;;;;4935123;29;20449;-64
2022/01/31 03:42:19;;;;;;;13.87;5.43;;;2.30;99.90;;;;;;4940927;29;20449;-64
2022/01/31 03:44:46;;;;;;;12.10;5.70;;;2.30;99.90;;;;;;4945166;28;20250;-64
2022/01/31 03:47:13;;;;;;;9.00;5.27;;;2.30;99.90;;;;;;4940959;28;20483;-64
2022/01/31 03:49:38;;;;;;;9.33;5.80;;;2.30;99.90;;;;;;4952171;29;20464;-63
2022/01/31 03:52:04;;;;;;;12.60;4.93;;;2.30;99.90;;;;;;4939429;29;20445;-64
2022/01/31 03:54:29;;;;;;;10.70;5.97;;;2.40;99.90;;;;;;4935879;29;20563;-64
2022/01/31 03:56:55;;;;;;;7.10;5.27;;;2.50;99.90;;;;;;4941485;29;20596;-65
2022/01/31 03:59:20;;;;;;;7.83;5.20;;;2.60;99.90;;;;;;4952397;28;20308;-63
2022/01/31 04:01:46;;;;;;;11.43;6.73;;;2.60;99.90;;;;;;4950587;28;20196;-64
2022/01/31 04:04:13;;;;;;;10.37;5.50;;;2.70;99.90;;;;;;4944892;28;20232;-64
2022/01/31 04:06:39;;;;;;;8.47;4.80;;;2.80;99.90;;;;;;4947070;28;20184;-63
2022/01/31 04:09:05;;;;;;;13.00;4.50;;;2.90;99.90;;;;;;4952993;28;20549;-64
2022/01/31 04:11:31;;;;;;;5.97;4.13;;;2.90;99.90;;;;;;4936053;29;20469;-64
2022/01/31 04:13:56;;;;;;;7.03;3.97;;;3.00;99.90;;;;;;4949484;29;20197;-64
2022/01/31 04:16:22;;;;;;;8.33;5.20;;;3.10;99.90;;;;;;4942253;28;20194;-64
2022/01/31 04:18:47;;;;;;;6.10;3.70;;;3.10;99.90;;;;;;4935639;29;20663;-64
2022/01/31 04:21:13;;;;;;;6.17;4.00;;;3.10;99.90;;;;;;4940726;29;20734;-64
2022/01/31 04:23:40;;;;;;;6.23;4.33;;;3.20;99.90;;;;;;4935959;29;20208;-64
2022/01/31 04:26:13;;;;;;;5.40;3.77;;;3.20;99.90;;;;;;4948732;28;20448;-64
2022/01/31 04:28:43;;;;;;;7.60;4.27;;;3.20;99.90;;;;;;4934432;29;20441;-63
2022/01/31 04:31:23;;;;;;;13.80;4.03;;;3.20;99.90;;;;;;4944303;29;20447;-64
2022/01/31 04:33:51;;;;;;;6.40;4.43;;;3.30;99.90;;;;;;4948887;28;20456;-64
2022/01/31 04:36:18;;;;;;;9.90;3.60;;;3.30;99.90;;;;;;4942967;29;20460;-64
2022/01/31 04:38:46;;;;;;;10.77;4.50;;;3.30;99.90;;;;;;4942688;29;20437;-64
2022/01/31 04:41:12;;;;;;;12.50;3.90;;;3.30;99.90;;;;;;4948958;29;20542;-64
2022/01/31 04:43:38;;;;;;;9.20;5.00;;;3.40;99.90;;;;;;4934398;29;20551;-64
2022/01/31 04:46:06;;;;;;;10.40;4.07;;;3.40;99.90;;;;;;4938768;29;20193;-64
2022/01/31 04:48:32;;;;;;;8.40;4.60;;;3.40;99.90;;;;;;4936840;28;20453;-64
2022/01/31 04:50:58;;;;;;;9.40;5.70;;;3.40;99.90;;;;;;4944087;29;20460;-63
2022/01/31 04:53:24;;;;;;;8.13;4.50;;;3.30;99.90;;;;;;4937162;29;20507;-63
2022/01/31 04:55:49;;;;;;;6.80;4.90;;;3.30;99.90;;;;;;4945320;29;20165;-63
2022/01/31 04:58:15;;;;;;;9.90;4.93;;;3.30;99.90;;;;;;4936908;28;20213;-63
2022/01/31 05:00:41;;;;;;;9.23;4.90;;;3.30;99.90;;;;;;4955575;29;20237;-63
2022/01/31 05:03:15;;;;;;;9.90;5.00;;;3.20;99.90;;;;;;4956440;29;20475;-64
2022/01/31 05:05:42;;;;;;;8.50;4.60;;;3.20;99.90;;;;;;4941431;28;20477;-64
2022/01/31 05:08:08;;;;;;;9.63;5.13;;;3.20;99.90;;;;;;4938712;29;20447;-64
2022/01/31 05:10:35;;;;;;;9.27;5.70;;;3.10;99.90;;;;;;4949658;29;20550;-64
2022/01/31 05:13:01;;;;;;;10.17;5.43;;;3.10;99.90;;;;;;4949851;28;20453;-63
2022/01/31 05:15:27;;;;;;;7.57;5.00;;;3.10;99.90;;;;;;4953446;29;20440;-64
2022/01/31 05:17:52;;;;;;;10.73;5.00;;;3.00;99.90;;;;;;4941193;29;20528;-64
2022/01/31 05:20:18;;;;;;;9.30;4.70;;;3.00;99.90;;;;;;4955611;28;20239;-64
2022/01/31 05:22:44;;;;;;;14.47;5.20;;;3.00;99.90;;;;;;4953972;29;20224;-63
2022/01/31 05:25:10;;;;;;;7.90;5.13;;;3.00;99.90;;;;;;4941242;29;20186;-63
2022/01/31 05:27:36;;;;;;;11.40;4.93;;;3.00;99.90;;;;;;4956563;28;20185;-63
2022/01/31 05:30:02;;;;;;;6.43;4.50;;;3.10;99.90;;;;;;4941547;29;21354;-64
2022/01/31 05:32:27;;;;;;;10.73;4.87;;;3.10;99.90;;;;;;4938146;28;20643;-64
2022/01/31 05:34:53;;;;;;;12.10;4.63;;;3.20;99.90;;;;;;4976458;28;20453;-64
2022/01/31 05:37:18;;;;;;;10.87;3.70;;;3.40;99.90;;;;;;4945148;28;20185;-63
2022/01/31 05:39:46;;;;;;;12.43;4.17;;;3.40;99.90;;;;;;4941094;29;20235;-64
2022/01/31 05:42:11;;;;;;;10.83;4.30;;;3.60;99.90;;;;;;4940410;29;20181;-63
2022/01/31 05:44:37;;;;;;;6.87;3.27;;;3.70;99.90;;;;;;4942028;29;20451;-63
2022/01/31 05:47:03;;;;;;;10.17;4.00;;;3.70;99.90;;;;;;4952102;28;20722;-64
2022/01/31 05:49:28;;;;;;;8.80;3.97;;;3.80;99.90;;;;;;4954047;28;20237;-63
2022/01/31 05:52:02;;;;;;;6.33;3.87;;;3.80;99.90;;;;;;4946636;29;20429;-63
2022/01/31 05:54:29;;;;;;;9.13;4.30;;;3.80;99.90;;;;;;4941009;29;20189;-64
2022/01/31 05:56:55;;;;;;;7.10;4.50;;;3.80;99.90;;;;;;4947467;29;20472;-63
2022/01/31 05:59:21;;;;;;;6.63;4.17;;;3.80;99.90;;;;;;4943410;28;20445;-64
2022/01/31 06:01:47;;;;;;;10.30;4.37;;;3.80;99.90;;;;;;4938999;29;20453;-64
2022/01/31 06:04:13;;;;;;;5.53;3.70;;;3.80;99.90;;;;;;4952039;29;20479;-64
2022/01/31 06:06:38;;;;;;;7.00;4.10;;;3.80;99.90;;;;;;4946577;29;20181;-64
2022/01/31 06:09:04;;;;;;;9.63;4.30;;;3.80;99.90;;;;;;4946241;29;20663;-64
2022/01/31 06:11:33;;;;;;;8.30;3.83;;;3.80;99.90;;;;;;4945831;28;20185;-63
2022/01/31 06:14:00;;;;;;;14.47;4.93;;;3.90;99.90;;;;;;4939187;29;20508;-64
2022/01/31 06:16:26;;;;;;;5.97;4.00;;;3.90;99.90;;;;;;4943664;29;20520;-63
2022/01/31 06:18:52;;;;;;;10.63;4.13;;;3.90;99.90;;;;;;4953327;29;21013;-64
2022/01/31 06:21:17;;;;;;;12.10;5.60;;;3.80;99.90;;;;;;4949274;28;20519;-63
2022/01/31 06:23:43;;;;;;;7.27;3.93;;;3.80;99.90;;;;;;4941173;28;20664;-63
2022/01/31 06:26:09;;;;;;;10.30;3.87;;;3.70;99.90;;;;;;4937366;29;20178;-63
2022/01/31 06:28:35;;;;;;;9.10;4.73;;;3.60;99.90;;;;;;4949584;29;20491;-63
2022/01/31 06:31:01;;;;;;;11.13;4.60;;;3.50;99.90;;;;;;4948158;28;20470;-64
2022/01/31 06:33:26;;;;;;;8.70;4.50;;;3.40;99.90;;;;;;4936401;29;20713;-64
2022/01/31 06:35:52;;;;;;;8.70;5.10;;;3.30;99.90;;;;;;4953531;29;20188;-63
2022/01/31 06:38:17;;;;;;;11.50;5.27;;;3.30;99.90;;;;;;4952756;29;20185;-64
2022/01/31 06:40:43;;;;;;;10.70;5.90;;;3.30;99.90;;;;;;4943829;29;20243;-64
2022/01/31 06:43:09;;;;;;;12.87;5.23;;;3.20;99.90;;;;;;4953812;28;20291;-63
2022/01/31 06:45:34;;;;;;;6.73;3.80;;;3.20;99.90;;;;;;4940706;29;20189;-64
2022/01/31 06:48:00;;;;;;;12.10;4.83;;;3.10;99.90;;;;;;4936643;29;20181;-64
2022/01/31 06:50:26;;;;;;;11.30;4.90;;;3.10;99.90;;;;;;4971565;28;20591;-64
2022/01/31 06:52:55;;;;;;;12.70;5.77;;;3.00;99.90;;;;;;4947048;28;20212;-64
2022/01/31 06:55:21;;;;;;;8.30;5.10;;;3.00;99.90;;;;;;4935776;29;20204;-64
2022/01/31 06:57:53;;;;;;;10.13;5.90;;;3.00;99.90;;;;;;4951517;29;20437;-64
2022/01/31 07:00:21;;;;;;;7.27;4.67;;;3.00;99.90;;;;;;4939382;29;20495;-64
2022/01/31 07:02:48;;;;;;;9.30;6.10;;;2.90;99.90;;;;;;4957554;28;20474;-64
2022/01/31 07:05:14;;;;;;;8.90;6.27;;;3.00;99.90;;;;;;4954127;29;20436;-63
2022/01/31 07:07:40;;;;;;;10.40;5.83;;;3.00;99.90;;;;;;4946810;29;20511;-64
2022/01/31 07:10:06;;;;;;;12.97;6.63;;;3.00;99.90;;;;;;4939002;28;20465;-64
2022/01/31 07:12:35;;;;;;;9.07;4.93;;;3.00;99.90;;;;;;4954259;28;20564;-64
2022/01/31 07:15:02;;;;;;;7.87;5.90;;;3.00;99.90;;;;;;4952672;29;20432;-65
2022/01/31 07:17:28;;;;;;;9.60;6.00;;;3.00;99.90;;;;;;4943338;28;20472;-63
2022/01/31 07:19:54;;;;;;;10.53;6.80;;;3.10;99.90;;;;;;4940318;28;20473;-64
2022/01/31 07:22:23;;;;;;;12.80;5.00;;;3.10;99.90;;;;;;4951236;28;20173;-64
2022/01/31 07:25:01;;;;;;;12.87;7.17;;;3.10;99.90;;;;;;4954116;29;20531;-63
2022/01/31 07:27:26;;;;;;;7.10;5.20;;;3.10;99.90;;;;;;4937723;28;20432;-64
2022/01/31 07:29:52;;;;;;;7.67;5.87;;;3.20;99.90;;;;;;4952892;29;20467;-65
2022/01/31 07:32:19;;;;;;;9.67;6.07;;;3.20;99.90;;;;;;4952310;28;20255;-66
2022/01/31 07:34:46;;;;;;;8.03;5.10;;;3.40;99.90;;;;;;4947141;29;20181;-65
2022/01/31 07:37:12;;;;;;;7.50;5.37;;;3.50;99.90;;;;;;4952571;29;20435;-66
2022/01/31 07:39:43;;;;;;;9.30;4.80;;;3.60;99.90;;;;;;4952458;29;20826;-66
2022/01/31 07:42:09;;;;;;;9.33;4.63;;;3.50;99.90;;;;;;4935229;29;20468;-66
2022/01/31 07:44:35;;;;;;;14.93;4.90;;;3.50;99.90;;;;;;4942042;29;20449;-64
2022/01/31 07:47:01;;;;;;;8.20;4.40;;;3.40;99.90;;;;;;4942867;28;20452;-65
2022/01/31 07:49:26;;;;;;;7.90;4.33;;;3.40;99.90;;;;;;4948680;29;20958;-66
2022/01/31 07:51:54;;;;;;;7.70;3.50;;;3.40;99.90;;;;;;4938476;28;20548;-65
2022/01/31 07:54:20;;;;;;;5.77;4.20;;;3.40;99.90;;;;;;4949031;28;20196;-67
2022/01/31 07:56:45;;;;;;;8.33;3.90;;;3.50;99.90;;;;;;4953820;29;20890;-65
2022/01/31 07:59:11;;;;;;;9.20;4.00;;;3.40;99.90;;;;;;4953020;28;20535;-65
2022/01/31 08:01:37;;;;;;;5.60;3.10;;;3.40;99.90;;;;;;4929199;28;20223;-65
2022/01/31 08:04:03;;;;;;;7.27;4.03;;;3.50;99.90;;;;;;4935309;29;20292;-65
2022/01/31 08:06:29;;;;;;;10.17;3.80;;;3.50;99.90;;;;;;4942435;28;20224;-65
2022/01/31 08:08:54;;;;;;;7.73;3.70;;;3.40;99.90;;;;;;4952801;28;20191;-65
2022/01/31 08:11:20;;;;;;;6.47;3.57;;;3.40;99.90;;;;;;4946915;28;20436;-64
2022/01/31 08:13:46;;;;;;;6.90;4.17;;;3.50;99.90;;;;;;4952611;29;20220;-65
2022/01/31 08:16:13;;;;;;;10.93;3.77;;;3.40;99.90;;;;;;4939410;28;20429;-64
2022/01/31 08:18:44;;;;;;;3.43;3.10;;;3.50;99.90;;;;;;4943162;29;20173;-64
2022/01/31 08:21:12;;;;;;;5.70;2.67;;;3.50;99.90;;;;;;4940025;29;20775;-64
2022/01/31 08:23:38;;;;;;;4.03;2.27;;;3.50;99.90;;;;;;4952503;29;20460;-64
2022/01/31 08:26:07;;;;;;;3.80;2.10;;;3.60;99.90;;;;;;4950385;28;20533;-64
2022/01/31 08:28:40;;;;;;;4.73;2.37;;;3.60;99.90;;;;;;4950614;29;21045;-64
2022/01/31 08:34:07;;;;;;;3.50;2.70;;;3.60;99.90;;;;;;4946580;28;20504;-64
2022/01/31 08:36:34;;;;;;;5.00;2.30;;;3.70;99.90;;;;;;4955546;29;20428;-65
2022/01/31 08:39:08;;;;;;;2.97;2.00;;;3.80;99.90;;;;;;4944262;28;20433;-64
2022/01/31 08:41:41;;;;;;;2.17;1.70;;;3.80;99.90;;;;;;4937538;29;20465;-64
2022/01/31 08:44:08;;;;;;;1.67;1.23;;;3.80;99.90;;;;;;4950172;29;20450;-64
2022/01/31 08:46:35;;;;;;;3.97;1.87;;;3.80;99.90;;;;;;4949506;29;20737;-64
2022/01/31 08:49:01;;;;;;;2.00;1.57;;;3.90;99.90;;;;;;4954801;28;20424;-64
2022/01/31 08:51:27;;;;;;;1.20;1.00;;;3.90;99.90;;;;;;4951623;28;20436;-64
2022/01/31 08:53:53;;;;;;;2.37;1.70;;;3.90;99.90;;;;;;4947743;28;20256;-64
2022/01/31 08:56:19;;;;;;;2.60;1.60;;;4.10;99.90;;;;;;4945630;29;20176;-64
2022/01/31 08:58:48;;;;;;;2.53;1.57;;;4.20;99.90;;;;;;4943565;29;20444;-64
2022/01/31 09:01:17;;;;;;;1.87;1.73;;;4.30;99.90;;;;;;4946051;29;20499;-64
2022/01/31 09:06:10;;;;;;;1.63;1.53;;;4.70;99.90;;;;;;4947654;29;20447;-64
2022/01/31 09:08:36;;;;;;;2.73;1.77;;;4.90;99.90;;;;;;4947438;29;20181;-64
2022/01/31 09:11:03;;;;;;;5.20;1.80;;;5.00;99.90;;;;;;4941950;28;20463;-64
2022/01/31 09:13:29;;;;;;;1.77;1.67;;;5.90;99.90;;;;;;4951539;29;20468;-64
2022/01/31 09:15:54;;;;;;;1.30;1.17;;;5.80;99.90;;;;;;4953442;28;20599;-64
2022/01/31 09:18:20;;;;;;;1.27;1.13;;;5.70;99.90;;;;;;4950190;28;20198;-64
2022/01/31 09:20:45;;;;;;;3.87;2.30;;;5.60;99.90;;;;;;4947862;28;20193;-64
2022/01/31 09:23:11;;;;;;;3.40;1.43;;;5.80;99.90;;;;;;4955010;28;20300;-64
2022/01/31 09:25:43;;;;;;;2.70;1.40;;;6.60;99.90;;;;;;4948774;28;20202;-64
2022/01/31 09:28:10;;;;;;;3.93;1.43;;;6.80;99.90;;;;;;4942599;29;20198;-65
2022/01/31 09:30:35;;;;;;;1.27;1.00;;;7.20;99.90;;;;;;4940343;29;20969;-64
2022/01/31 09:33:01;;;;;;;2.53;1.37;;;7.50;99.90;;;;;;4947063;28;20471;-64
2022/01/31 09:35:26;;;;;;;2.40;1.60;;;7.70;99.90;;;;;;4948962;29;20706;-64
2022/01/31 09:37:52;;;;;;;1.70;1.00;;;8.00;99.90;;;;;;4941528;28;20358;-64
2022/01/31 09:40:21;;;;;;;2.00;1.37;;;8.10;99.90;;;;;;4940210;29;20240;-64
2022/01/31 09:51:23;;;;;;;5.80;1.70;;;6.40;99.90;;;;;;4939670;28;20508;-64
2022/01/31 09:53:56;;;;;;;4.30;1.57;;;6.10;99.90;;;;;;4951242;29;20588;-65
2022/01/31 09:56:28;;;;;;;3.93;2.73;;;6.10;99.90;;;;;;4934825;29;20478;-64
2022/01/31 09:58:55;;;;;;;4.67;2.20;;;6.30;99.90;;;;;;4941812;29;20436;-64
2022/01/31 10:01:26;;;;;;;3.47;2.10;;;6.20;99.90;;;;;;4947418;28;20483;-65
2022/01/31 10:04:09;;;;;;;3.77;1.57;;;6.30;99.90;;;;;;4939065;29;20457;-64
2022/01/31 10:06:37;;;;;;;5.77;2.17;;;6.20;99.90;;;;;;4941373;29;20439;-65
2022/01/31 10:09:23;;;;;;;9.30;1.57;;;6.00;99.90;;;;;;4947850;28;20433;-64
2022/01/31 10:12:18;;;;;;;4.20;2.20;;;5.90;99.90;;;;;;4944959;28;20905;-64
2022/01/31 10:17:39;;;;;;;2.77;2.00;;;5.70;99.90;;;;;;4953670;29;20459;-65
2022/01/31 10:20:10;;;;;;;4.77;2.10;;;5.80;99.90;;;;;;4951399;29;20446;-65
2022/01/31 10:22:42;;;;;;;2.30;1.50;;;5.80;99.90;;;;;;4945426;29;20545;-64
2022/01/31 10:25:10;;;;;;;2.73;2.10;;;5.70;99.90;;;;;;4945599;29;20652;-64
2022/01/31 10:27:36;;;;;;;5.23;1.73;;;5.70;99.90;;;;;;4940367;29;20445;-65
2022/01/31 10:30:14;;;;;;;1.83;1.43;;;5.90;99.90;;;;;;4944471;29;20556;-65
2022/01/31 10:32:47;;;;;;;1.70;1.60;;;5.90;99.90;;;;;;4943061;28;20207;-65
2022/01/31 10:35:19;;;;;;;6.40;2.20;;;5.90;99.90;;;;;;4944492;29;20512;-65
2022/01/31 10:37:46;;;;;;;2.73;1.60;;;6.00;99.90;;;;;;4940508;29;20433;-65
2022/01/31 10:54:15;;;;;;;4.20;1.70;;;7.20;99.90;;;;;;4946053;28;20487;-65
2022/01/31 10:56:37;;;;;;;1.70;1.60;;;7.60;99.90;;;;;;4936785;28;20442;-65
2022/01/31 10:59:10;;;;;;;3.90;1.60;;;8.10;99.90;;;;;;4942981;29;20451;-65
2022/01/31 11:01:39;;;;;;;3.53;1.57;;;7.80;99.90;;;;;;4940760;29;20550;-65
2022/01/31 11:04:07;;;;;;;4.30;1.67;;;7.50;99.90;;;;;;4940530;28;20461;-66
2022/01/31 11:06:33;;;;;;;5.90;1.73;;;7.40;99.90;;;;;;4948890;29;20476;-65
2022/01/31 11:09:08;;;;;;;1.60;1.50;;;7.10;99.90;;;;;;4951324;29;20444;-65
2022/01/31 11:11:35;;;;;;;3.13;1.93;;;6.80;99.90;;;;;;4946096;29;20662;-63
2022/01/31 11:14:02;;;;;;;1.70;1.53;;;6.60;99.90;;;;;;4951016;28;20829;-65
2022/01/31 11:16:29;;;;;;;6.57;2.37;;;6.40;99.90;;;;;;4943886;29;20457;-64
2022/01/31 11:18:58;;;;;;;3.43;1.87;;;6.10;99.90;;;;;;4953602;29;20803;-63
2022/01/31 11:21:29;;;;;;;3.60;2.17;;;6.10;99.90;;;;;;4947028;28;20441;-64
2022/01/31 11:24:02;;;;;;;1.73;1.63;;;6.20;99.90;;;;;;4954672;28;20460;-64
2022/01/31 11:26:35;;;;;;;2.20;1.60;;;6.40;99.90;;;;;;4949078;29;20439;-64
2022/01/31 11:29:02;;;;;;;1.83;1.30;;;6.70;99.90;;;;;;4946879;29;20445;-66
2022/01/31 11:31:28;;;;;;;3.40;1.70;;;6.70;99.90;;;;;;4940301;29;20433;-64
2022/01/31 11:33:58;;;;;;;2.90;1.53;;;6.50;99.90;;;;;;4951643;29;20488;-65
2022/01/31 11:36:23;;;;;;;4.03;1.80;;;6.20;99.90;;;;;;4948855;29;20455;-65
2022/01/31 11:38:50;;;;;;;4.13;1.80;;;5.90;99.90;;;;;;4953696;29;20433;-65
2022/01/31 11:41:17;;;;;;;2.60;1.43;;;5.70;99.90;;;;;;4947346;28;20180;-65
2022/01/31 11:43:51;;;;;;;2.90;1.70;;;5.50;99.90;;;;;;4942744;29;20920;-65
2022/01/31 11:46:21;;;;;;;2.40;1.63;;;5.40;99.90;;;;;;4943526;29;20536;-65
2022/01/31 11:48:47;;;;;;;1.77;1.60;;;5.30;99.90;;;;;;4950452;29;20429;-64
2022/01/31 11:51:12;;;;;;;3.93;2.03;;;5.20;99.90;;;;;;4947469;28;20457;-65
2022/01/31 11:53:39;;;;;;;4.77;1.60;;;5.20;99.90;;;;;;4953138;29;20205;-65
2022/01/31 11:56:17;;;;;;;2.30;1.70;;;5.20;99.90;;;;;;4952860;28;20181;-64
2022/01/31 11:58:51;;;;;;;2.17;1.30;;;5.20;99.90;;;;;;4953240;29;20441;-65
2022/01/31 12:01:19;;;;;;;4.80;1.63;;;5.20;99.90;;;;;;4947186;28;20460;-65
2022/01/31 12:03:57;;;;;;;2.17;1.80;;;5.20;99.90;;;;;;4952994;28;20522;-65
2022/01/31 12:06:24;;;;;;;3.23;1.60;;;5.00;99.90;;;;;;4952565;28;20499;-64
2022/01/31 12:08:52;;;;;;;2.37;1.60;;;5.00;99.90;;;;;;4952237;28;20507;-64
2022/01/31 12:11:25;;;;;;;4.10;1.67;;;5.00;99.90;;;;;;4946044;29;20477;-64
2022/01/31 12:14:00;;;;;;;1.93;1.03;;;4.90;99.90;;;;;;4950917;29;20448;-65
2022/01/31 12:16:46;;;;;;;3.10;1.50;;;4.90;99.90;;;;;;4952293;29;20434;-65
2022/01/31 12:22:04;;;;;;;2.70;1.60;;;4.70;99.90;;;;;;4946691;29;20432;-65
2022/01/31 12:24:40;;;;;;;3.67;1.80;;;4.70;99.90;;;;;;4952692;29;20551;-65
2022/01/31 12:27:21;;;;;;;1.80;1.70;;;4.70;99.90;;;;;;4945291;28;20436;-65
2022/01/31 12:29:57;;;;;;;2.60;1.50;;;4.60;99.90;;;;;;4948703;29;20468;-64
2022/01/31 12:32:38;;;;;;;3.90;1.87;;;4.60;99.90;;;;;;4943473;29;20938;-64
2022/01/31 12:35:14;;;;;;;8.07;1.73;;;4.50;99.90;;;;;;4950147;29;20460;-64
2022/01/31 12:37:48;;;;;;;3.33;1.57;;;4.50;99.90;;;;;;4950632;28;20433;-64
2022/01/31 12:40:39;;;;;;;3.63;1.90;;;4.50;99.90;;;;;;4949125;29;20456;-64
2022/01/31 12:43:47;;;;;;;5.60;2.07;;;4.50;99.90;;;;;;4948828;28;20451;-64
2022/01/31 12:46:16;;;;;;;4.93;1.97;;;4.50;99.90;;;;;;4950110;29;20439;-64
2022/01/31 12:48:43;;;;;;;9.90;2.50;;;4.50;99.90;;;;;;4950755;29;20491;-64
2022/01/31 12:51:10;;;;;;;4.83;2.20;;;4.50;99.90;;;;;;4944677;28;20472;-64
2022/01/31 12:53:40;;;;;;;3.57;1.97;;;4.50;99.90;;;;;;4949590;29;20535;-64
2022/01/31 12:56:25;;;;;;;5.53;2.20;;;4.40;99.90;;;;;;4950293;29;20413;-64
2022/01/31 12:58:58;;;;;;;5.63;1.90;;;4.40;99.90;;;;;;4950572;29;20926;-64
2022/01/31 13:01:33;;;;;;;3.93;1.73;;;4.40;99.90;;;;;;4944344;28;20416;-64
2022/01/31 13:04:27;;;;;;;5.07;2.13;;;4.40;99.90;;;;;;4949905;28;20557;-64
2022/01/31 13:06:58;;;;;;;3.23;1.50;;;4.40;99.90;;;;;;4948871;28;20432;-64
2022/01/31 13:09:30;;;;;;;2.80;1.80;;;4.30;99.90;;;;;;4950993;29;21154;-64
2022/01/31 13:12:01;;;;;;;3.53;2.27;;;4.30;99.90;;;;;;4944223;28;20432;-64
2022/01/31 13:14:30;;;;;;;3.70;1.57;;;4.30;99.90;;;;;;4950007;29;20841;-64
2022/01/31 13:17:10;;;;;;;5.97;2.40;;;4.20;99.90;;;;;;4950054;28;20881;-64
2022/01/31 13:19:41;;;;;;;3.50;1.77;;;4.30;99.90;;;;;;4951222;28;20512;-64
2022/01/31 13:22:11;;;;;;;1.90;1.53;;;4.30;99.90;;;;;;4947568;29;20890;-64
2022/01/31 13:24:42;;;;;;;5.00;1.63;;;4.20;99.90;;;;;;4953711;29;20424;-64
2022/01/31 13:27:14;;;;;;;6.60;2.30;;;4.20;99.90;;;;;;4953430;28;20428;-64
2022/01/31 13:29:46;;;;;;;2.50;1.57;;;4.20;99.90;;;;;;4952290;29;20460;-64
2022/01/31 13:32:35;;;;;;;4.10;1.70;;;4.20;99.90;;;;;;4947641;29;20436;-64